Yulara, Australia

2:03 PM ACST on May 01, 2017 (GMT +0930)
Ayers Rock | | Change Station

Elev 1627 ft 25.18 °S, 130.97 °E | Updated 33 minutes ago

Clear
Clear
75 °F
Feels Like 75 °F
N
7
Wind Variable Wind from ESE

Today
High -- | Low -- °F
--% Chance of Precip.
Yesterday
High -- | Low -- °F
Precip. -- in
Pressure 30.09 in
Visibility 6.2 miles
Clouds
Dew Point 39 °F
Humidity 27%
Rainfall 0.00 in
Snow Depth Not available.
7:08 AM 6:17 PM
Waxing Crescent, 29% visible
METAR YAYE 010400Z AUTO 12006KT 080V180 9999 // NCD 24/04 Q1019
Pressure 30.09 in
Visibility 6.2 miles
Clouds
Dew Point 39 °F
Humidity 27%
Rainfall 0.00 in
Snow Depth Not available.
7:08 AM 6:17 PM
Waxing Crescent, 29% visible
METAR YAYE 010400Z AUTO 12006KT 080V180 9999 // NCD 24/04 Q1019

Get Severe Weather Alerts

Thanks for signing up!

Be on the lookout for a verification email in your inbox.

You'll start receiving the daily forecast at 8 AM.

×

10-Day Weather Forecast

×

Almanac

Astronomy

May. 01, 2017 Rise Set
Actual Time
Civil Twilight
Nautical Twilight
Astronomical Twilight
Moon
Length of Visible Light
Length of Day
Tomorrow will be .
, % of the Moon is Illuminated

Today's Extremes

Country Highs Country Lows

Community

WunderPhotos

WunderBlog® & News

Nearby

Air Quality

  Air Quality AQ Index Pollutant
Not available.

Snow Depth

Station Depth Elevation

Earthquake Activity

City Distance Mag. Time & Date
Minimum magnitude displayed is 2.5.

Coastal Water Temperatures

Place Temperature

Stations

Nearby Weather Stations

Station Location Temp. Windchill Dew Point Humidity Wind Precip. Elev Updated Type